Roxbury Crossing, Massachusetts
Current Conditions -  °F | °C
As of 3:54 PM on Thursday 23 Oct 2014 (Local Time) from KBOS Reporting Station
Haze Haze  
Wind Chill: 52°   Ceiling: 1000
Heat Index: 52°   Visibility: 3mi
Dew Point: 52°   Wind: 26mph
Humidity: 100%   Direction: 10°N
Pressure: 29.58"   Gusts: 41mph
Location:  42.3325°N, 71.0965°W
Report Text: KBOS 231954Z 01023G36KT 3SM BR BKN010 OVC016 11/11 A2958 RMK AO2 PK WND 01038/1858 SFC VIS 4 RAE54 SLP017 P0004 T01110111
Loading
Personal Weather Stations






























Interactive Weather Map
Tropical Storm Tracking
New forecast layout! Learn more

10-Day Weather Forecast

Advertisements
Track Severe Weather on mobile